sensor_id;sensor_type;location;lat;lon;timestamp;temperature;humidity
22996;DHT22;11664;49.774;8.650;2022-08-03T08:17:58;27.10;85.20
22996;DHT22;11664;49.774;8.650;2022-08-03T08:30:18;27.40;82.30
22996;DHT22;11664;49.774;8.650;2022-08-03T08:32:44;27.50;82.50
22996;DHT22;11664;49.774;8.650;2022-08-03T08:35:10;27.70;82.10
22996;DHT22;11664;49.774;8.650;2022-08-03T08:40:04;27.90;80.20
22996;DHT22;11664;49.774;8.650;2022-08-03T08:42:33;28.00;81.40
22996;DHT22;11664;49.774;8.650;2022-08-03T08:45:02;28.20;81.00
22996;DHT22;11664;49.774;8.650;2022-08-03T08:47:30;28.20;79.30
22996;DHT22;11664;49.774;8.650;2022-08-03T08:49:57;28.30;79.70
22996;DHT22;11664;49.774;8.650;2022-08-03T08:52:26;28.40;78.80
22996;DHT22;11664;49.774;8.650;2022-08-03T08:54:59;28.60;78.40
22996;DHT22;11664;49.774;8.650;2022-08-03T08:57:28;28.70;78.60
22996;DHT22;11664;49.774;8.650;2022-08-03T09:02:22;28.60;77.20
22996;DHT22;11664;49.774;8.650;2022-08-03T09:04:48;28.60;78.10
22996;DHT22;11664;49.774;8.650;2022-08-03T09:07:14;28.80;77.30
22996;DHT22;11664;49.774;8.650;2022-08-03T09:09:40;29.00;78.10
22996;DHT22;11664;49.774;8.650;2022-08-03T09:17:00;29.20;77.20
22996;DHT22;11664;49.774;8.650;2022-08-03T09:19:28;29.20;77.30
22996;DHT22;11664;49.774;8.650;2022-08-03T09:22:07;29.20;77.30
22996;DHT22;11664;49.774;8.650;2022-08-03T09:24:34;29.40;76.90
22996;DHT22;11664;49.774;8.650;2022-08-03T09:27:00;29.60;77.10
22996;DHT22;11664;49.774;8.650;2022-08-03T09:29:25;29.70;75.70
22996;DHT22;11664;49.774;8.650;2022-08-03T09:32:00;29.90;75.70
22996;DHT22;11664;49.774;8.650;2022-08-03T09:34:26;30.00;75.10
22996;DHT22;11664;49.774;8.650;2022-08-03T09:36:55;30.10;74.20
22996;DHT22;11664;49.774;8.650;2022-08-03T09:39:24;30.20;73.70
22996;DHT22;11664;49.774;8.650;2022-08-03T09:42:14;30.70;73.90
22996;DHT22;11664;49.774;8.650;2022-08-03T09:44:46;30.60;72.70
22996;DHT22;11664;49.774;8.650;2022-08-03T09:47:14;30.90;72.40
22996;DHT22;11664;49.774;8.650;2022-08-03T09:49:41;31.00;71.10
22996;DHT22;11664;49.774;8.650;2022-08-03T09:52:18;30.90;70.10
22996;DHT22;11664;49.774;8.650;2022-08-03T09:54:50;30.90;70.00
22996;DHT22;11664;49.774;8.650;2022-08-03T09:57:24;30.90;69.50
22996;DHT22;11664;49.774;8.650;2022-08-03T09:59:51;31.20;70.30
22996;DHT22;11664;49.774;8.650;2022-08-03T10:02:22;31.50;69.00
22996;DHT22;11664;49.774;8.650;2022-08-03T10:07:17;31.00;69.10
22996;DHT22;11664;49.774;8.650;2022-08-03T10:10:13;31.50;69.20
22996;DHT22;11664;49.774;8.650;2022-08-03T10:12:40;31.90;67.50
22996;DHT22;11664;49.774;8.650;2022-08-03T10:15:07;32.10;66.30
22996;DHT22;11664;49.774;8.650;2022-08-03T10:17:33;32.20;66.30
22996;DHT22;11664;49.774;8.650;2022-08-03T10:19:59;32.30;66.30
22996;DHT22;11664;49.774;8.650;2022-08-03T10:22:34;32.70;65.80
22996;DHT22;11664;49.774;8.650;2022-08-03T10:25:05;32.50;65.80
22996;DHT22;11664;49.774;8.650;2022-08-03T10:27:34;32.40;65.00
22996;DHT22;11664;49.774;8.650;2022-08-03T10:30:03;32.50;64.90
22996;DHT22;11664;49.774;8.650;2022-08-03T10:32:33;32.70;64.60
22996;DHT22;11664;49.774;8.650;2022-08-03T10:35:11;32.90;63.40
22996;DHT22;11664;49.774;8.650;2022-08-03T10:37:43;33.20;62.50
22996;DHT22;11664;49.774;8.650;2022-08-03T10:40:13;33.40;62.50
22996;DHT22;11664;49.774;8.650;2022-08-03T10:42:43;33.60;61.50
22996;DHT22;11664;49.774;8.650;2022-08-03T10:45:27;33.80;61.00
22996;DHT22;11664;49.774;8.650;2022-08-03T10:47:55;33.50;60.70
22996;DHT22;11664;49.774;8.650;2022-08-03T10:50:23;33.90;61.70
22996;DHT22;11664;49.774;8.650;2022-08-03T11:01:06;34.20;59.80
22996;DHT22;11664;49.774;8.650;2022-08-03T11:03:33;34.40;58.90
22996;DHT22;11664;49.774;8.650;2022-08-03T11:06:16;33.90;58.00
22996;DHT22;11664;49.774;8.650;2022-08-03T11:08:46;33.90;58.10
22996;DHT22;11664;49.774;8.650;2022-08-03T11:14:06;34.70;58.20
22996;DHT22;11664;49.774;8.650;2022-08-03T11:16:35;35.20;57.00
22996;DHT22;11664;49.774;8.650;2022-08-03T11:19:03;35.20;56.60
22996;DHT22;11664;49.774;8.650;2022-08-03T11:27:30;35.80;55.30
22996;DHT22;11664;49.774;8.650;2022-08-03T11:42:57;35.00;54.50
22996;DHT22;11664;49.774;8.650;2022-08-03T11:45:23;34.70;54.10
22996;DHT22;11664;49.774;8.650;2022-08-03T11:47:52;34.90;55.60
22996;DHT22;11664;49.774;8.650;2022-08-03T11:50:19;34.90;54.00
22996;DHT22;11664;49.774;8.650;2022-08-03T11:52:45;35.00;53.60
22996;DHT22;11664;49.774;8.650;2022-08-03T11:55:13;35.40;54.30
22996;DHT22;11664;49.774;8.650;2022-08-03T11:57:39;35.50;53.10
22996;DHT22;11664;49.774;8.650;2022-08-03T12:00:30;35.60;52.80
22996;DHT22;11664;49.774;8.650;2022-08-03T12:03:08;35.70;52.70
22996;DHT22;11664;49.774;8.650;2022-08-03T12:05:37;35.80;52.30
22996;DHT22;11664;49.774;8.650;2022-08-03T12:08:03;36.10;52.20
22996;DHT22;11664;49.774;8.650;2022-08-03T12:10:29;35.70;52.20
22996;DHT22;11664;49.774;8.650;2022-08-03T12:12:56;36.00;51.90
22996;DHT22;11664;49.774;8.650;2022-08-03T12:15:26;36.30;52.10
22996;DHT22;11664;49.774;8.650;2022-08-03T12:17:52;36.60;51.40
22996;DHT22;11664;49.774;8.650;2022-08-03T12:20:28;36.80;51.80
22996;DHT22;11664;49.774;8.650;2022-08-03T12:22:54;36.60;50.70
22996;DHT22;11664;49.774;8.650;2022-08-03T12:25:24;36.90;50.60
22996;DHT22;11664;49.774;8.650;2022-08-03T12:27:51;37.20;51.10
22996;DHT22;11664;49.774;8.650;2022-08-03T12:30:17;36.20;50.20
22996;DHT22;11664;49.774;8.650;2022-08-03T12:32:43;36.40;50.90
22996;DHT22;11664;49.774;8.650;2022-08-03T12:35:21;36.10;51.30
22996;DHT22;11664;49.774;8.650;2022-08-03T12:37:48;35.80;51.80
22996;DHT22;11664;49.774;8.650;2022-08-03T12:40:14;35.70;51.10
22996;DHT22;11664;49.774;8.650;2022-08-03T12:42:40;35.70;50.70
22996;DHT22;11664;49.774;8.650;2022-08-03T12:45:24;36.00;51.00
22996;DHT22;11664;49.774;8.650;2022-08-03T12:47:55;36.30;50.60
22996;DHT22;11664;49.774;8.650;2022-08-03T12:50:31;36.50;50.60
22996;DHT22;11664;49.774;8.650;2022-08-03T12:53:02;36.40;50.90
22996;DHT22;11664;49.774;8.650;2022-08-03T12:55:29;36.50;50.20
22996;DHT22;11664;49.774;8.650;2022-08-03T12:58:05;37.00;49.70
22996;DHT22;11664;49.774;8.650;2022-08-03T13:00:31;36.80;49.70
22996;DHT22;11664;49.774;8.650;2022-08-03T13:05:26;37.10;50.10
22996;DHT22;11664;49.774;8.650;2022-08-03T13:07:53;37.40;49.30
22996;DHT22;11664;49.774;8.650;2022-08-03T13:10:30;37.50;48.20
22996;DHT22;11664;49.774;8.650;2022-08-03T13:12:57;37.80;48.60
22996;DHT22;11664;49.774;8.650;2022-08-03T13:15:25;38.20;48.60
22996;DHT22;11664;49.774;8.650;2022-08-03T13:17:53;37.30;48.60
22996;DHT22;11664;49.774;8.650;2022-08-03T13:20:18;37.40;48.60
22996;DHT22;11664;49.774;8.650;2022-08-03T13:22:46;37.30;48.40
22996;DHT22;11664;49.774;8.650;2022-08-03T13:25:12;37.50;48.50
22996;DHT22;11664;49.774;8.650;2022-08-03T13:27:38;38.00;47.90
22996;DHT22;11664;49.774;8.650;2022-08-03T13:30:05;38.30;48.00
22996;DHT22;11664;49.774;8.650;2022-08-03T13:32:32;38.40;48.50
22996;DHT22;11664;49.774;8.650;2022-08-03T13:34:57;38.60;48.20
22996;DHT22;11664;49.774;8.650;2022-08-03T13:37:23;38.40;46.30
22996;DHT22;11664;49.774;8.650;2022-08-03T13:39:49;38.20;47.40
22996;DHT22;11664;49.774;8.650;2022-08-03T13:42:15;38.20;47.60
22996;DHT22;11664;49.774;8.650;2022-08-03T13:44:40;37.90;47.40
22996;DHT22;11664;49.774;8.650;2022-08-03T13:47:06;37.80;47.10
22996;DHT22;11664;49.774;8.650;2022-08-03T13:49:31;37.80;47.50
22996;DHT22;11664;49.774;8.650;2022-08-03T13:51:57;37.50;47.30
22996;DHT22;11664;49.774;8.650;2022-08-03T13:54:23;37.70;47.30
22996;DHT22;11664;49.774;8.650;2022-08-03T13:56:49;37.80;47.10
22996;DHT22;11664;49.774;8.650;2022-08-03T13:59:22;37.70;46.80
22996;DHT22;11664;49.774;8.650;2022-08-03T14:01:49;38.10;47.10
22996;DHT22;11664;49.774;8.650;2022-08-03T14:04:15;38.50;47.00
22996;DHT22;11664;49.774;8.650;2022-08-03T14:06:40;38.60;46.80
22996;DHT22;11664;49.774;8.650;2022-08-03T14:09:06;38.60;45.90
22996;DHT22;11664;49.774;8.650;2022-08-03T14:11:32;38.70;46.00
22996;DHT22;11664;49.774;8.650;2022-08-03T14:13:58;38.70;46.00
22996;DHT22;11664;49.774;8.650;2022-08-03T14:16:23;38.90;46.40
22996;DHT22;11664;49.774;8.650;2022-08-03T14:18:49;39.50;46.40
22996;DHT22;11664;49.774;8.650;2022-08-03T14:21:14;39.40;45.10
22996;DHT22;11664;49.774;8.650;2022-08-03T14:23:40;39.70;45.50
22996;DHT22;11664;49.774;8.650;2022-08-03T14:26:07;39.50;46.00
22996;DHT22;11664;49.774;8.650;2022-08-03T14:28:33;39.60;45.60
22996;DHT22;11664;49.774;8.650;2022-08-03T14:31:00;39.50;44.60
22996;DHT22;11664;49.774;8.650;2022-08-03T14:33:26;39.50;45.20
22996;DHT22;11664;49.774;8.650;2022-08-03T14:35:53;40.20;45.30
22996;DHT22;11664;49.774;8.650;2022-08-03T14:38:19;39.40;44.60
22996;DHT22;11664;49.774;8.650;2022-08-03T14:40:45;39.40;45.40
22996;DHT22;11664;49.774;8.650;2022-08-03T14:43:11;38.80;46.10
22996;DHT22;11664;49.774;8.650;2022-08-03T14:45:38;38.50;45.30
22996;DHT22;11664;49.774;8.650;2022-08-03T14:48:04;38.30;46.10
22996;DHT22;11664;49.774;8.650;2022-08-03T14:50:30;38.90;46.10
22996;DHT22;11664;49.774;8.650;2022-08-03T14:52:55;39.80;45.00
22996;DHT22;11664;49.774;8.650;2022-08-03T14:55:21;39.50;44.80
22996;DHT22;11664;49.774;8.650;2022-08-03T14:57:47;39.30;44.70
22996;DHT22;11664;49.774;8.650;2022-08-03T15:00:13;40.10;44.70
22996;DHT22;11664;49.774;8.650;2022-08-03T15:02:39;40.20;43.80
22996;DHT22;11664;49.774;8.650;2022-08-03T15:05:05;40.30;44.20
22996;DHT22;11664;49.774;8.650;2022-08-03T15:07:30;39.90;43.90
22996;DHT22;11664;49.774;8.650;2022-08-03T15:09:56;40.70;44.00
22996;DHT22;11664;49.774;8.650;2022-08-03T15:12:22;41.10;43.40
22996;DHT22;11664;49.774;8.650;2022-08-03T15:14:47;40.00;43.30
22996;DHT22;11664;49.774;8.650;2022-08-03T15:17:13;40.20;43.40
22996;DHT22;11664;49.774;8.650;2022-08-03T15:19:38;40.60;44.50
22996;DHT22;11664;49.774;8.650;2022-08-03T15:22:05;40.90;43.60
22996;DHT22;11664;49.774;8.650;2022-08-03T15:24:30;41.40;43.60
22996;DHT22;11664;49.774;8.650;2022-08-03T15:26:56;41.10;42.50
22996;DHT22;11664;49.774;8.650;2022-08-03T15:29:22;41.20;43.10
22996;DHT22;11664;49.774;8.650;2022-08-03T15:31:47;40.30;43.40
22996;DHT22;11664;49.774;8.650;2022-08-03T15:34:13;40.20;43.60
22996;DHT22;11664;49.774;8.650;2022-08-03T15:36:38;40.00;43.60
22996;DHT22;11664;49.774;8.650;2022-08-03T15:39:04;39.20;44.00
22996;DHT22;11664;49.774;8.650;2022-08-03T15:41:30;38.90;44.60
22996;DHT22;11664;49.774;8.650;2022-08-03T15:43:56;39.20;44.60
22996;DHT22;11664;49.774;8.650;2022-08-03T15:46:22;39.20;44.70
22996;DHT22;11664;49.774;8.650;2022-08-03T15:48:48;39.30;44.60
22996;DHT22;11664;49.774;8.650;2022-08-03T15:51:13;39.60;44.10
22996;DHT22;11664;49.774;8.650;2022-08-03T15:53:39;40.00;43.60
22996;DHT22;11664;49.774;8.650;2022-08-03T15:56:05;39.80;43.50
22996;DHT22;11664;49.774;8.650;2022-08-03T15:58:35;40.30;43.50
22996;DHT22;11664;49.774;8.650;2022-08-03T16:01:01;40.50;42.80
22996;DHT22;11664;49.774;8.650;2022-08-03T16:03:27;40.50;42.60
22996;DHT22;11664;49.774;8.650;2022-08-03T16:06:05;40.70;42.50
22996;DHT22;11664;49.774;8.650;2022-08-03T16:08:32;41.10;42.50
22996;DHT22;11664;49.774;8.650;2022-08-03T16:10:58;41.20;42.20
22996;DHT22;11664;49.774;8.650;2022-08-03T16:13:24;40.90;42.20
22996;DHT22;11664;49.774;8.650;2022-08-03T16:15:50;41.00;42.50
22996;DHT22;11664;49.774;8.650;2022-08-03T16:18:16;41.20;42.30
22996;DHT22;11664;49.774;8.650;2022-08-03T16:20:42;41.10;42.50
22996;DHT22;11664;49.774;8.650;2022-08-03T16:23:09;41.50;42.60
22996;DHT22;11664;49.774;8.650;2022-08-03T16:25:34;41.50;42.60
22996;DHT22;11664;49.774;8.650;2022-08-03T16:28:00;41.20;42.00
22996;DHT22;11664;49.774;8.650;2022-08-03T16:32:51;41.10;40.80
22996;DHT22;11664;49.774;8.650;2022-08-03T16:35:17;41.40;41.90
22996;DHT22;11664;49.774;8.650;2022-08-03T16:37:42;40.70;41.60
22996;DHT22;11664;49.774;8.650;2022-08-03T16:40:10;40.30;41.50
22996;DHT22;11664;49.774;8.650;2022-08-03T16:42:36;40.10;42.30
22996;DHT22;11664;49.774;8.650;2022-08-03T16:45:06;40.20;42.30
22996;DHT22;11664;49.774;8.650;2022-08-03T16:47:32;39.90;42.40
22996;DHT22;11664;49.774;8.650;2022-08-03T16:49:57;39.90;42.40
22996;DHT22;11664;49.774;8.650;2022-08-03T16:52:24;40.10;42.30
22996;DHT22;11664;49.774;8.650;2022-08-03T16:54:49;40.00;42.50
22996;DHT22;11664;49.774;8.650;2022-08-03T16:57:15;39.70;42.60
22996;DHT22;11664;49.774;8.650;2022-08-03T16:59:41;39.10;42.60
22996;DHT22;11664;49.774;8.650;2022-08-03T17:02:07;38.60;43.70
22996;DHT22;11664;49.774;8.650;2022-08-03T17:21:45;34.90;47.80
22996;DHT22;11664;49.774;8.650;2022-08-03T17:24:23;34.80;48.40
22996;DHT22;11664;49.774;8.650;2022-08-03T17:26:50;34.60;48.60
